createdAt,value
2022-08-07T00:04:41.617Z,102023.91
2022-08-07T00:10:04.676Z,102023.50
2022-08-07T00:15:09.199Z,102013.78
2022-08-07T00:20:15.624Z,102006.13
2022-08-07T00:25:37.578Z,101994.16
2022-08-07T00:30:42.976Z,101989.34
2022-08-07T00:35:49.480Z,101988.94
2022-08-07T00:40:51.429Z,101988.09
2022-08-07T00:45:53.350Z,101987.06
2022-08-07T00:50:55.612Z,101981.84
2022-08-07T00:56:03.207Z,101984.41
2022-08-07T01:01:05.545Z,101984.63
2022-08-07T01:06:08.104Z,101973.44
2022-08-07T01:12:09.744Z,101968.31
2022-08-07T01:16:34.525Z,101973.84
2022-08-07T01:21:37.251Z,101969.22
2022-08-07T01:26:40.343Z,101968.91
2022-08-07T01:31:48.693Z,101962.19
2022-08-07T01:36:52.458Z,101967.19
2022-08-07T01:42:36.891Z,101952.19
2022-08-07T01:48:29.242Z,101960.44
2022-08-07T01:52:56.248Z,101957.66
2022-08-07T01:58:06.528Z,101963.00
2022-08-07T02:03:42.680Z,101959.22
2022-08-07T02:08:49.977Z,101965.16
2022-08-07T02:14:02.317Z,101964.91
2022-08-07T02:20:05.245Z,101963.94
2022-08-07T02:24:30.369Z,101961.38
2022-08-07T02:29:34.318Z,101956.94
2022-08-07T02:34:51.066Z,101948.09
2022-08-07T02:40:12.059Z,101952.88
2022-08-07T02:45:58.851Z,101962.88
2022-08-07T02:50:44.637Z,101960.13
2022-08-07T02:56:02.286Z,101948.22
2022-08-07T03:01:16.050Z,101947.09
2022-08-07T03:06:26.086Z,101948.59
2022-08-07T03:11:38.570Z,101943.41
2022-08-07T03:16:40.899Z,101948.63
2022-08-07T03:21:50.368Z,101954.75
2022-08-07T03:26:58.756Z,101961.09
2022-08-07T03:32:04.336Z,101958.81
2022-08-07T03:37:12.219Z,101953.00
2022-08-07T03:42:15.966Z,101946.13
2022-08-07T03:47:18.533Z,101945.88
2022-08-07T03:52:27.859Z,101942.09
2022-08-07T03:58:35.153Z,101949.22
2022-08-07T04:02:56.689Z,101943.59
2022-08-07T04:07:58.801Z,101945.06
2022-08-07T04:13:03.327Z,101945.38
2022-08-07T04:18:57.083Z,101946.19
2022-08-07T04:23:43.522Z,101943.63
2022-08-07T04:28:50.321Z,101952.16
2022-08-07T04:33:56.471Z,101958.06
2022-08-07T04:38:58.584Z,101955.56
2022-08-07T04:44:12.241Z,101959.47
2022-08-07T04:49:42.818Z,101955.41
2022-08-07T04:58:15.999Z,101959.72
2022-08-07T05:01:20.256Z,101976.19
2022-08-07T05:06:43.347Z,101971.81
2022-08-07T05:11:58.553Z,101975.22
2022-08-07T05:17:05.952Z,101979.50
2022-08-07T05:22:26.811Z,101978.69
2022-08-07T05:28:02.793Z,101972.69
2022-08-07T05:32:53.108Z,101980.00
2022-08-07T05:38:09.001Z,101987.53
2022-08-07T05:43:11.682Z,101988.59
2022-08-07T05:48:15.374Z,101988.28
2022-08-07T05:54:13.135Z,101990.63
2022-08-07T05:58:40.989Z,101990.13
2022-08-07T06:03:58.915Z,101987.34
2022-08-07T06:09:04.717Z,101992.78
2022-08-07T06:14:12.338Z,101998.19
2022-08-07T06:19:18.244Z,102002.44
2022-08-07T06:24:56.886Z,102006.22
2022-08-07T06:30:00.960Z,101999.50
2022-08-07T06:35:02.773Z,102010.50
2022-08-07T06:40:21.463Z,102007.88
2022-08-07T06:45:24.253Z,102005.00
2022-08-07T06:50:26.864Z,101995.50
2022-08-07T06:56:00.296Z,101995.84
2022-08-07T07:00:58.137Z,102000.06
2022-08-07T07:06:04.323Z,102001.06
2022-08-07T07:11:14.043Z,102011.91
2022-08-07T07:16:45.102Z,102000.75
2022-08-07T07:22:04.949Z,101991.91
2022-08-07T07:27:16.960Z,101990.63
2022-08-07T07:32:21.220Z,101980.81
2022-08-07T07:37:49.793Z,101992.31
2022-08-07T07:42:53.748Z,101990.09
2022-08-07T07:47:57.157Z,101990.88
2022-08-07T07:53:00.861Z,101980.84
2022-08-07T07:58:03.398Z,101995.19
2022-08-07T08:03:16.756Z,101988.72
2022-08-07T08:08:39.229Z,101981.31
2022-08-07T08:13:53.371Z,101977.31
2022-08-07T08:19:00.546Z,101977.16
2022-08-07T09:03:02.185Z,101950.53
2022-08-07T09:08:49.890Z,101948.44
2022-08-07T09:14:16.330Z,101947.81
2022-08-07T09:19:52.619Z,101946.09
2022-08-07T09:25:17.370Z,101949.97
2022-08-07T09:30:32.357Z,101950.56
2022-08-07T09:59:14.526Z,101908.88
2022-08-07T10:05:15.301Z,101904.94
2022-08-07T10:28:33.378Z,101891.78
2022-08-07T11:14:45.087Z,101846.56
2022-08-07T11:26:13.071Z,101831.88
2022-08-07T11:31:24.840Z,101818.03
2022-08-07T11:37:11.718Z,101817.31
2022-08-07T11:43:18.539Z,101811.50
2022-08-07T11:56:24.998Z,101802.28
2022-08-07T12:12:11.599Z,101797.22
2022-08-07T12:39:57.358Z,101774.81
2022-08-07T13:13:48.234Z,101741.16
2022-08-07T13:19:22.045Z,101732.75
2022-08-07T13:31:46.228Z,101727.97
2022-08-07T13:53:08.188Z,101686.59
2022-08-07T14:10:12.251Z,101676.41
2022-08-07T14:15:18.842Z,101675.00
2022-08-07T14:26:50.328Z,101665.28
2022-08-07T14:31:57.707Z,101654.69
2022-08-07T15:04:55.970Z,101622.97
2022-08-07T15:10:58.686Z,101629.84
2022-08-07T15:16:20.128Z,101618.31
2022-08-07T15:33:43.001Z,101620.63
2022-08-07T15:45:02.053Z,101607.72
2022-08-07T16:22:04.127Z,101595.56
2022-08-07T16:32:39.648Z,101594.72
2022-08-07T16:38:14.818Z,101579.25
2022-08-07T17:21:22.685Z,101598.59
2022-08-07T17:44:41.495Z,101593.81
2022-08-07T17:50:01.091Z,101586.69
2022-08-07T18:01:51.742Z,101585.09
2022-08-07T18:07:22.913Z,101595.19
2022-08-07T18:13:01.417Z,101594.78
2022-08-07T18:18:45.046Z,101607.19
2022-08-07T18:24:33.275Z,101607.03
2022-08-07T18:30:31.185Z,101601.75
2022-08-07T18:36:14.905Z,101607.06
2022-08-07T18:41:52.983Z,101619.69
2022-08-07T18:47:20.843Z,101626.00
2022-08-07T18:52:54.418Z,101626.06
2022-08-07T19:04:57.455Z,101643.00
2022-08-07T19:16:04.981Z,101657.47
2022-08-07T19:21:55.985Z,101663.19
2022-08-07T19:29:02.950Z,101671.91
2022-08-07T19:32:44.073Z,101681.13
2022-08-07T19:38:14.914Z,101683.81
2022-08-07T19:44:21.590Z,101696.56
2022-08-07T20:02:24.597Z,101708.03
2022-08-07T20:13:55.001Z,101703.00
2022-08-07T20:20:04.639Z,101699.41
2022-08-07T20:55:00.795Z,101718.06
2022-08-07T21:00:09.703Z,101719.66
2022-08-07T21:22:59.208Z,101728.78
2022-08-07T21:28:49.911Z,101729.47
2022-08-07T22:09:07.623Z,101748.66
2022-08-07T22:16:39.515Z,101746.63
2022-08-07T22:21:11.486Z,101737.19
2022-08-07T22:26:20.189Z,101751.41
2022-08-07T22:32:24.832Z,101750.09
2022-08-07T22:49:34.023Z,101747.28
2022-08-07T22:55:22.593Z,101749.00
2022-08-07T23:01:19.865Z,101754.34
2022-08-07T23:06:51.644Z,101750.13
2022-08-07T23:12:38.050Z,101757.13
2022-08-07T23:18:03.526Z,101755.41
2022-08-07T23:24:06.120Z,101761.75
2022-08-07T23:29:44.054Z,101761.31
2022-08-07T23:35:26.903Z,101757.09
2022-08-07T23:41:10.363Z,101758.84
2022-08-07T23:46:45.172Z,101766.13
2022-08-07T23:53:08.846Z,101758.88
2022-08-07T23:57:41.360Z,101761.56
